sensor_id;sensor_type;location;lat;lon;timestamp;temperature;humidity
15341;DHT22;7770;52.158;5.372;2023-05-31T00:00:43;11.60;99.90
15341;DHT22;7770;52.158;5.372;2023-05-31T00:03:30;11.60;99.90
15341;DHT22;7770;52.158;5.372;2023-05-31T00:06:16;11.60;99.90
15341;DHT22;7770;52.158;5.372;2023-05-31T00:09:02;11.60;99.90
15341;DHT22;7770;52.158;5.372;2023-05-31T00:11:48;11.50;99.90
15341;DHT22;7770;52.158;5.372;2023-05-31T00:14:34;11.50;99.90
15341;DHT22;7770;52.158;5.372;2023-05-31T00:17:20;11.50;99.90
15341;DHT22;7770;52.158;5.372;2023-05-31T00:20:06;11.40;99.90
15341;DHT22;7770;52.158;5.372;2023-05-31T00:22:53;11.50;99.90
15341;DHT22;7770;52.158;5.372;2023-05-31T00:25:39;11.40;99.90
15341;DHT22;7770;52.158;5.372;2023-05-31T00:28:25;11.40;99.90
15341;DHT22;7770;52.158;5.372;2023-05-31T00:31:11;11.40;99.90
15341;DHT22;7770;52.158;5.372;2023-05-31T00:33:57;11.40;99.90
15341;DHT22;7770;52.158;5.372;2023-05-31T00:36:43;11.40;99.90
15341;DHT22;7770;52.158;5.372;2023-05-31T00:39:29;11.40;99.90
15341;DHT22;7770;52.158;5.372;2023-05-31T00:42:15;11.30;99.90
15341;DHT22;7770;52.158;5.372;2023-05-31T00:45:02;11.30;99.90
15341;DHT22;7770;52.158;5.372;2023-05-31T00:47:48;11.30;99.90
15341;DHT22;7770;52.158;5.372;2023-05-31T00:50:35;11.30;99.90
15341;DHT22;7770;52.158;5.372;2023-05-31T00:53:22;11.20;99.90
15341;DHT22;7770;52.158;5.372;2023-05-31T00:56:08;11.20;99.90
15341;DHT22;7770;52.158;5.372;2023-05-31T00:58:59;11.20;99.90
15341;DHT22;7770;52.158;5.372;2023-05-31T01:01:45;11.10;99.90
15341;DHT22;7770;52.158;5.372;2023-05-31T01:04:32;11.10;99.90
15341;DHT22;7770;52.158;5.372;2023-05-31T01:07:18;11.00;99.90
15341;DHT22;7770;52.158;5.372;2023-05-31T01:10:05;11.00;99.90
15341;DHT22;7770;52.158;5.372;2023-05-31T01:16:10;11.00;99.90
15341;DHT22;7770;52.158;5.372;2023-05-31T01:19:01;11.00;99.90
15341;DHT22;7770;52.158;5.372;2023-05-31T01:28:21;10.90;99.90
15341;DHT22;7770;52.158;5.372;2023-05-31T01:31:13;10.80;99.90
15341;DHT22;7770;52.158;5.372;2023-05-31T01:34:03;10.80;99.90
15341;DHT22;7770;52.158;5.372;2023-05-31T01:36:50;10.80;99.90
15341;DHT22;7770;52.158;5.372;2023-05-31T01:39:36;10.80;99.90
15341;DHT22;7770;52.158;5.372;2023-05-31T01:42:23;10.80;99.90
15341;DHT22;7770;52.158;5.372;2023-05-31T01:45:11;10.80;99.90
15341;DHT22;7770;52.158;5.372;2023-05-31T01:48:02;10.80;99.90
15341;DHT22;7770;52.158;5.372;2023-05-31T01:50:51;10.70;99.90
15341;DHT22;7770;52.158;5.372;2023-05-31T01:53:38;10.60;99.90
15341;DHT22;7770;52.158;5.372;2023-05-31T01:56:24;10.70;99.90
15341;DHT22;7770;52.158;5.372;2023-05-31T01:59:11;10.70;99.90
15341;DHT22;7770;52.158;5.372;2023-05-31T02:01:58;10.60;99.90
15341;DHT22;7770;52.158;5.372;2023-05-31T02:04:44;10.60;99.90
15341;DHT22;7770;52.158;5.372;2023-05-31T02:07:30;10.50;99.90
15341;DHT22;7770;52.158;5.372;2023-05-31T02:10:17;10.50;99.90
15341;DHT22;7770;52.158;5.372;2023-05-31T02:13:03;10.50;99.90
15341;DHT22;7770;52.158;5.372;2023-05-31T02:15:49;10.50;99.90
15341;DHT22;7770;52.158;5.372;2023-05-31T02:18:35;10.50;99.90
15341;DHT22;7770;52.158;5.372;2023-05-31T02:21:22;10.50;99.90
15341;DHT22;7770;52.158;5.372;2023-05-31T02:24:08;10.50;99.90
15341;DHT22;7770;52.158;5.372;2023-05-31T02:26:54;10.50;99.90
15341;DHT22;7770;52.158;5.372;2023-05-31T02:29:41;10.40;99.90
15341;DHT22;7770;52.158;5.372;2023-05-31T02:32:27;10.40;99.90
15341;DHT22;7770;52.158;5.372;2023-05-31T02:35:13;10.40;99.90
15341;DHT22;7770;52.158;5.372;2023-05-31T02:37:59;10.30;99.90
15341;DHT22;7770;52.158;5.372;2023-05-31T02:40:45;10.40;99.90
15341;DHT22;7770;52.158;5.372;2023-05-31T02:43:31;10.40;99.90
15341;DHT22;7770;52.158;5.372;2023-05-31T02:46:17;10.30;99.90
15341;DHT22;7770;52.158;5.372;2023-05-31T02:49:03;10.30;99.90
15341;DHT22;7770;52.158;5.372;2023-05-31T02:51:49;10.20;99.90
15341;DHT22;7770;52.158;5.372;2023-05-31T02:54:36;10.20;99.90
15341;DHT22;7770;52.158;5.372;2023-05-31T02:57:22;10.20;99.90
15341;DHT22;7770;52.158;5.372;2023-05-31T03:00:08;10.20;99.90
15341;DHT22;7770;52.158;5.372;2023-05-31T03:02:58;10.20;99.90
15341;DHT22;7770;52.158;5.372;2023-05-31T03:05:45;10.10;99.90
15341;DHT22;7770;52.158;5.372;2023-05-31T03:08:31;10.10;99.90
15341;DHT22;7770;52.158;5.372;2023-05-31T03:11:17;10.10;99.90
15341;DHT22;7770;52.158;5.372;2023-05-31T03:14:03;10.10;99.90
15341;DHT22;7770;52.158;5.372;2023-05-31T03:16:49;10.10;99.90
15341;DHT22;7770;52.158;5.372;2023-05-31T03:19:35;10.10;99.90
15341;DHT22;7770;52.158;5.372;2023-05-31T03:22:21;10.10;99.90
15341;DHT22;7770;52.158;5.372;2023-05-31T03:25:09;10.00;99.90
15341;DHT22;7770;52.158;5.372;2023-05-31T03:27:55;10.10;99.90
15341;DHT22;7770;52.158;5.372;2023-05-31T03:30:42;10.10;99.90
15341;DHT22;7770;52.158;5.372;2023-05-31T03:33:28;10.10;99.90
15341;DHT22;7770;52.158;5.372;2023-05-31T03:36:16;10.00;99.90
15341;DHT22;7770;52.158;5.372;2023-05-31T03:39:02;10.10;99.90
15341;DHT22;7770;52.158;5.372;2023-05-31T03:41:49;10.00;99.90
15341;DHT22;7770;52.158;5.372;2023-05-31T03:44:35;10.10;99.90
15341;DHT22;7770;52.158;5.372;2023-05-31T03:47:21;10.10;99.90
15341;DHT22;7770;52.158;5.372;2023-05-31T03:50:07;10.10;99.90
15341;DHT22;7770;52.158;5.372;2023-05-31T03:52:53;10.10;99.90
15341;DHT22;7770;52.158;5.372;2023-05-31T03:55:39;10.10;99.90
15341;DHT22;7770;52.158;5.372;2023-05-31T03:58:25;10.10;99.90
15341;DHT22;7770;52.158;5.372;2023-05-31T04:01:11;10.20;99.90
15341;DHT22;7770;52.158;5.372;2023-05-31T04:03:58;10.20;99.90
15341;DHT22;7770;52.158;5.372;2023-05-31T04:06:44;10.20;99.90
15341;DHT22;7770;52.158;5.372;2023-05-31T04:09:30;10.30;99.90
15341;DHT22;7770;52.158;5.372;2023-05-31T04:12:16;10.30;99.90
15341;DHT22;7770;52.158;5.372;2023-05-31T04:15:02;10.40;99.90
15341;DHT22;7770;52.158;5.372;2023-05-31T04:17:49;10.40;99.90
15341;DHT22;7770;52.158;5.372;2023-05-31T04:20:35;10.40;99.90
15341;DHT22;7770;52.158;5.372;2023-05-31T04:23:21;10.40;99.90
15341;DHT22;7770;52.158;5.372;2023-05-31T04:26:07;10.50;99.90
15341;DHT22;7770;52.158;5.372;2023-05-31T04:28:53;10.50;99.90
15341;DHT22;7770;52.158;5.372;2023-05-31T04:31:40;10.60;99.90
15341;DHT22;7770;52.158;5.372;2023-05-31T04:34:26;10.60;99.90
15341;DHT22;7770;52.158;5.372;2023-05-31T04:37:12;10.60;99.90
15341;DHT22;7770;52.158;5.372;2023-05-31T04:39:59;10.70;99.90
15341;DHT22;7770;52.158;5.372;2023-05-31T04:42:46;10.80;99.90
15341;DHT22;7770;52.158;5.372;2023-05-31T04:45:32;10.80;99.90
15341;DHT22;7770;52.158;5.372;2023-05-31T04:48:18;10.90;99.90
15341;DHT22;7770;52.158;5.372;2023-05-31T04:51:05;11.00;99.90
15341;DHT22;7770;52.158;5.372;2023-05-31T04:53:51;11.00;99.90
15341;DHT22;7770;52.158;5.372;2023-05-31T04:56:37;11.10;99.90
15341;DHT22;7770;52.158;5.372;2023-05-31T04:59:23;11.20;99.90
15341;DHT22;7770;52.158;5.372;2023-05-31T05:02:09;11.30;99.90
15341;DHT22;7770;52.158;5.372;2023-05-31T05:04:55;11.40;99.90
15341;DHT22;7770;52.158;5.372;2023-05-31T05:07:41;11.50;99.90
15341;DHT22;7770;52.158;5.372;2023-05-31T05:10:27;11.60;99.90
15341;DHT22;7770;52.158;5.372;2023-05-31T05:13:13;11.70;99.90
15341;DHT22;7770;52.158;5.372;2023-05-31T05:15:59;11.80;99.90
15341;DHT22;7770;52.158;5.372;2023-05-31T05:18:45;12.00;99.90
15341;DHT22;7770;52.158;5.372;2023-05-31T05:21:31;12.70;99.90
15341;DHT22;7770;52.158;5.372;2023-05-31T05:24:17;13.40;99.90
15341;DHT22;7770;52.158;5.372;2023-05-31T05:27:03;14.30;99.90
15341;DHT22;7770;52.158;5.372;2023-05-31T05:29:49;14.90;99.90
15341;DHT22;7770;52.158;5.372;2023-05-31T05:32:35;15.00;99.90
15341;DHT22;7770;52.158;5.372;2023-05-31T05:35:21;15.80;99.90
15341;DHT22;7770;52.158;5.372;2023-05-31T05:38:07;16.80;99.90
15341;DHT22;7770;52.158;5.372;2023-05-31T05:40:53;16.70;99.90
15341;DHT22;7770;52.158;5.372;2023-05-31T05:43:39;17.00;99.90
15341;DHT22;7770;52.158;5.372;2023-05-31T05:46:25;16.90;99.90
15341;DHT22;7770;52.158;5.372;2023-05-31T05:49:11;17.50;99.90
15341;DHT22;7770;52.158;5.372;2023-05-31T05:51:57;17.30;99.90
15341;DHT22;7770;52.158;5.372;2023-05-31T05:54:43;17.50;99.90
15341;DHT22;7770;52.158;5.372;2023-05-31T05:57:29;17.20;99.90
15341;DHT22;7770;52.158;5.372;2023-05-31T06:00:16;17.70;99.90
15341;DHT22;7770;52.158;5.372;2023-05-31T06:03:03;17.30;99.90
15341;DHT22;7770;52.158;5.372;2023-05-31T06:05:49;16.70;99.90
15341;DHT22;7770;52.158;5.372;2023-05-31T06:08:35;16.40;99.90
15341;DHT22;7770;52.158;5.372;2023-05-31T06:11:21;15.80;99.90
15341;DHT22;7770;52.158;5.372;2023-05-31T06:14:08;15.50;99.90
15341;DHT22;7770;52.158;5.372;2023-05-31T06:16:54;15.60;99.90
15341;DHT22;7770;52.158;5.372;2023-05-31T06:19:40;15.40;99.90
15341;DHT22;7770;52.158;5.372;2023-05-31T06:22:26;15.90;99.90
15341;DHT22;7770;52.158;5.372;2023-05-31T06:25:12;16.40;99.90
15341;DHT22;7770;52.158;5.372;2023-05-31T06:27:58;16.40;99.90
15341;DHT22;7770;52.158;5.372;2023-05-31T06:30:44;16.00;99.90
15341;DHT22;7770;52.158;5.372;2023-05-31T06:33:30;15.50;99.90
15341;DHT22;7770;52.158;5.372;2023-05-31T06:36:16;15.70;99.90
15341;DHT22;7770;52.158;5.372;2023-05-31T06:39:03;16.30;99.90
15341;DHT22;7770;52.158;5.372;2023-05-31T06:41:49;16.50;99.90
15341;DHT22;7770;52.158;5.372;2023-05-31T06:44:35;16.50;99.90
15341;DHT22;7770;52.158;5.372;2023-05-31T06:47:21;16.60;99.90
15341;DHT22;7770;52.158;5.372;2023-05-31T06:50:09;16.50;99.90
15341;DHT22;7770;52.158;5.372;2023-05-31T06:52:55;16.50;99.90
15341;DHT22;7770;52.158;5.372;2023-05-31T06:55:41;16.10;99.90
15341;DHT22;7770;52.158;5.372;2023-05-31T06:58:31;16.00;99.90
15341;DHT22;7770;52.158;5.372;2023-05-31T07:01:17;15.80;99.90
15341;DHT22;7770;52.158;5.372;2023-05-31T07:04:03;15.80;99.90
15341;DHT22;7770;52.158;5.372;2023-05-31T07:06:49;15.80;99.90
15341;DHT22;7770;52.158;5.372;2023-05-31T07:09:35;15.90;99.90
15341;DHT22;7770;52.158;5.372;2023-05-31T07:12:22;16.00;99.90
15341;DHT22;7770;52.158;5.372;2023-05-31T07:15:08;16.40;99.90
15341;DHT22;7770;52.158;5.372;2023-05-31T07:17:55;16.90;99.90
15341;DHT22;7770;52.158;5.372;2023-05-31T07:20:42;17.50;99.90
15341;DHT22;7770;52.158;5.372;2023-05-31T07:23:29;17.90;99.90
15341;DHT22;7770;52.158;5.372;2023-05-31T07:26:16;18.70;99.90
15341;DHT22;7770;52.158;5.372;2023-05-31T07:29:02;20.20;99.90
15341;DHT22;7770;52.158;5.372;2023-05-31T07:31:48;21.30;99.90
15341;DHT22;7770;52.158;5.372;2023-05-31T07:34:34;22.10;99.90
15341;DHT22;7770;52.158;5.372;2023-05-31T07:37:20;22.80;99.50
15341;DHT22;7770;52.158;5.372;2023-05-31T07:40:07;23.40;98.40
15341;DHT22;7770;52.158;5.372;2023-05-31T07:42:53;23.90;97.60
15341;DHT22;7770;52.158;5.372;2023-05-31T07:45:40;23.80;97.50
15341;DHT22;7770;52.158;5.372;2023-05-31T07:48:26;24.20;97.10
15341;DHT22;7770;52.158;5.372;2023-05-31T07:51:14;24.80;96.20
15341;DHT22;7770;52.158;5.372;2023-05-31T07:53:59;25.10;95.80
15341;DHT22;7770;52.158;5.372;2023-05-31T07:56:45;25.00;95.70
15341;DHT22;7770;52.158;5.372;2023-05-31T07:59:31;25.20;95.40
15341;DHT22;7770;52.158;5.372;2023-05-31T08:02:17;25.70;94.90
15341;DHT22;7770;52.158;5.372;2023-05-31T08:05:04;25.40;94.70
15341;DHT22;7770;52.158;5.372;2023-05-31T08:07:50;25.70;94.70
15341;DHT22;7770;52.158;5.372;2023-05-31T08:10:36;25.90;94.60
15341;DHT22;7770;52.158;5.372;2023-05-31T08:13:22;26.10;94.30
15341;DHT22;7770;52.158;5.372;2023-05-31T08:16:09;26.40;93.80
15341;DHT22;7770;52.158;5.372;2023-05-31T08:18:55;26.30;93.60
15341;DHT22;7770;52.158;5.372;2023-05-31T08:21:41;26.60;93.60
15341;DHT22;7770;52.158;5.372;2023-05-31T08:24:28;26.80;93.50
15341;DHT22;7770;52.158;5.372;2023-05-31T08:27:14;27.20;92.90
15341;DHT22;7770;52.158;5.372;2023-05-31T08:30:02;27.70;92.70
15341;DHT22;7770;52.158;5.372;2023-05-31T08:32:49;27.70;92.20
15341;DHT22;7770;52.158;5.372;2023-05-31T08:35:35;28.10;92.20
15341;DHT22;7770;52.158;5.372;2023-05-31T08:38:21;28.40;91.70
15341;DHT22;7770;52.158;5.372;2023-05-31T08:41:08;28.10;91.40
15341;DHT22;7770;52.158;5.372;2023-05-31T08:43:54;27.80;91.30
15341;DHT22;7770;52.158;5.372;2023-05-31T08:46:44;28.20;91.60
15341;DHT22;7770;52.158;5.372;2023-05-31T08:49:33;28.00;91.70
15341;DHT22;7770;52.158;5.372;2023-05-31T08:52:20;28.00;91.60
15341;DHT22;7770;52.158;5.372;2023-05-31T08:55:07;28.30;91.60
15341;DHT22;7770;52.158;5.372;2023-05-31T08:57:54;28.50;90.80
15341;DHT22;7770;52.158;5.372;2023-05-31T09:00:42;28.60;90.70
15341;DHT22;7770;52.158;5.372;2023-05-31T09:03:31;28.40;91.50
15341;DHT22;7770;52.158;5.372;2023-05-31T09:06:17;29.40;91.30
15341;DHT22;7770;52.158;5.372;2023-05-31T09:09:03;28.30;90.50
15341;DHT22;7770;52.158;5.372;2023-05-31T09:11:52;28.40;91.20
15341;DHT22;7770;52.158;5.372;2023-05-31T09:14:38;29.50;90.90
15341;DHT22;7770;52.158;5.372;2023-05-31T09:17:24;30.00;90.40
15341;DHT22;7770;52.158;5.372;2023-05-31T09:20:10;29.80;90.80
15341;DHT22;7770;52.158;5.372;2023-05-31T09:22:56;29.90;90.10
15341;DHT22;7770;52.158;5.372;2023-05-31T09:25:48;30.20;87.50
15341;DHT22;7770;52.158;5.372;2023-05-31T09:28:35;30.30;88.60
15341;DHT22;7770;52.158;5.372;2023-05-31T09:31:21;30.30;88.50
15341;DHT22;7770;52.158;5.372;2023-05-31T09:37:24;29.40;90.30
15341;DHT22;7770;52.158;5.372;2023-05-31T09:40:24;30.10;90.10
15341;DHT22;7770;52.158;5.372;2023-05-31T09:43:15;29.80;88.80
15341;DHT22;7770;52.158;5.372;2023-05-31T09:46:01;29.50;89.50
15341;DHT22;7770;52.158;5.372;2023-05-31T09:48:59;29.10;90.70
15341;DHT22;7770;52.158;5.372;2023-05-31T09:51:52;29.80;89.10
15341;DHT22;7770;52.158;5.372;2023-05-31T09:54:38;30.50;88.20
15341;DHT22;7770;52.158;5.372;2023-05-31T09:57:32;30.10;89.30
15341;DHT22;7770;52.158;5.372;2023-05-31T10:00:25;30.10;88.00
15341;DHT22;7770;52.158;5.372;2023-05-31T10:03:11;30.40;88.50
15341;DHT22;7770;52.158;5.372;2023-05-31T10:05:57;30.60;88.40
15341;DHT22;7770;52.158;5.372;2023-05-31T10:08:47;30.80;87.20
15341;DHT22;7770;52.158;5.372;2023-05-31T10:11:34;30.10;86.20
15341;DHT22;7770;52.158;5.372;2023-05-31T10:14:24;30.40;87.10
15341;DHT22;7770;52.158;5.372;2023-05-31T10:17:17;31.10;86.60
15341;DHT22;7770;52.158;5.372;2023-05-31T10:20:08;29.00;88.70
15341;DHT22;7770;52.158;5.372;2023-05-31T10:23:01;30.50;87.90
15341;DHT22;7770;52.158;5.372;2023-05-31T10:26:11;30.50;86.80
15341;DHT22;7770;52.158;5.372;2023-05-31T10:29:13;31.20;85.50
15341;DHT22;7770;52.158;5.372;2023-05-31T10:32:13;31.30;86.80
15341;DHT22;7770;52.158;5.372;2023-05-31T10:35:03;31.40;86.20
15341;DHT22;7770;52.158;5.372;2023-05-31T10:37:51;30.30;85.90
15341;DHT22;7770;52.158;5.372;2023-05-31T10:40:55;28.80;89.00
15341;DHT22;7770;52.158;5.372;2023-05-31T10:43:53;29.60;89.40
15341;DHT22;7770;52.158;5.372;2023-05-31T10:46:43;30.70;88.00
15341;DHT22;7770;52.158;5.372;2023-05-31T10:49:32;31.00;88.30
15341;DHT22;7770;52.158;5.372;2023-05-31T10:52:19;31.00;86.10
15341;DHT22;7770;52.158;5.372;2023-05-31T10:55:24;31.60;85.80
15341;DHT22;7770;52.158;5.372;2023-05-31T10:58:30;32.30;85.30
15341;DHT22;7770;52.158;5.372;2023-05-31T11:01:22;31.20;86.30
15341;DHT22;7770;52.158;5.372;2023-05-31T11:04:23;30.90;86.60
15341;DHT22;7770;52.158;5.372;2023-05-31T11:07:21;31.30;87.50
15341;DHT22;7770;52.158;5.372;2023-05-31T11:10:29;31.20;87.80
15341;DHT22;7770;52.158;5.372;2023-05-31T11:13:17;31.20;86.10
15341;DHT22;7770;52.158;5.372;2023-05-31T11:16:04;29.50;88.20
15341;DHT22;7770;52.158;5.372;2023-05-31T11:19:02;31.00;87.60
15341;DHT22;7770;52.158;5.372;2023-05-31T11:21:53;31.40;87.30
15341;DHT22;7770;52.158;5.372;2023-05-31T11:24:56;32.10;87.40
15341;DHT22;7770;52.158;5.372;2023-05-31T11:27:46;31.50;84.50
15341;DHT22;7770;52.158;5.372;2023-05-31T11:30:37;30.30;87.50
15341;DHT22;7770;52.158;5.372;2023-05-31T11:33:23;30.40;87.60
15341;DHT22;7770;52.158;5.372;2023-05-31T11:36:14;30.90;87.00
15341;DHT22;7770;52.158;5.372;2023-05-31T11:39:00;30.80;87.30
15341;DHT22;7770;52.158;5.372;2023-05-31T11:41:48;31.10;87.10
15341;DHT22;7770;52.158;5.372;2023-05-31T11:44:34;30.40;88.10
15341;DHT22;7770;52.158;5.372;2023-05-31T11:47:32;30.20;89.20
15341;DHT22;7770;52.158;5.372;2023-05-31T11:50:20;29.70;89.10
15341;DHT22;7770;52.158;5.372;2023-05-31T11:53:10;29.60;88.20
15341;DHT22;7770;52.158;5.372;2023-05-31T11:55:57;29.00;87.60
15341;DHT22;7770;52.158;5.372;2023-05-31T11:58:47;28.30;89.70
15341;DHT22;7770;52.158;5.372;2023-05-31T12:01:40;27.50;90.10
15341;DHT22;7770;52.158;5.372;2023-05-31T12:04:36;27.90;90.20
15341;DHT22;7770;52.158;5.372;2023-05-31T12:07:32;28.30;90.10
15341;DHT22;7770;52.158;5.372;2023-05-31T12:10:18;28.50;88.50
15341;DHT22;7770;52.158;5.372;2023-05-31T12:13:04;28.30;90.10
15341;DHT22;7770;52.158;5.372;2023-05-31T12:15:51;28.40;89.90
15341;DHT22;7770;52.158;5.372;2023-05-31T12:18:40;28.30;90.30
15341;DHT22;7770;52.158;5.372;2023-05-31T12:21:26;28.50;90.00
15341;DHT22;7770;52.158;5.372;2023-05-31T12:24:14;28.80;89.20
15341;DHT22;7770;52.158;5.372;2023-05-31T12:27:01;28.50;89.20
15341;DHT22;7770;52.158;5.372;2023-05-31T12:29:48;28.20;88.60
15341;DHT22;7770;52.158;5.372;2023-05-31T12:32:34;27.90;88.30
15341;DHT22;7770;52.158;5.372;2023-05-31T12:35:20;27.80;89.80
15341;DHT22;7770;52.158;5.372;2023-05-31T12:38:06;27.70;90.20
15341;DHT22;7770;52.158;5.372;2023-05-31T12:40:52;26.80;90.20
15341;DHT22;7770;52.158;5.372;2023-05-31T12:43:40;26.80;90.40
15341;DHT22;7770;52.158;5.372;2023-05-31T12:46:26;26.20;91.40
15341;DHT22;7770;52.158;5.372;2023-05-31T12:49:19;26.80;91.10
15341;DHT22;7770;52.158;5.372;2023-05-31T12:52:15;26.70;90.70
15341;DHT22;7770;52.158;5.372;2023-05-31T12:55:01;26.00;90.80
15341;DHT22;7770;52.158;5.372;2023-05-31T12:57:47;25.70;92.40
15341;DHT22;7770;52.158;5.372;2023-05-31T13:00:33;26.20;91.10
15341;DHT22;7770;52.158;5.372;2023-05-31T13:03:19;26.60;91.30
15341;DHT22;7770;52.158;5.372;2023-05-31T13:06:05;26.40;91.00
15341;DHT22;7770;52.158;5.372;2023-05-31T13:08:51;26.40;91.80
15341;DHT22;7770;52.158;5.372;2023-05-31T13:11:38;25.70;91.50
15341;DHT22;7770;52.158;5.372;2023-05-31T13:14:25;25.80;91.60
15341;DHT22;7770;52.158;5.372;2023-05-31T13:17:11;26.10;92.70
15341;DHT22;7770;52.158;5.372;2023-05-31T13:19:57;25.70;94.40
15341;DHT22;7770;52.158;5.372;2023-05-31T13:22:43;25.90;95.30
15341;DHT22;7770;52.158;5.372;2023-05-31T13:25:29;25.90;96.00
15341;DHT22;7770;52.158;5.372;2023-05-31T13:28:15;25.70;96.80
15341;DHT22;7770;52.158;5.372;2023-05-31T13:31:01;25.70;96.00
15341;DHT22;7770;52.158;5.372;2023-05-31T13:33:47;25.90;95.80
15341;DHT22;7770;52.158;5.372;2023-05-31T13:36:34;25.40;96.20
15341;DHT22;7770;52.158;5.372;2023-05-31T13:39:20;25.70;96.40
15341;DHT22;7770;52.158;5.372;2023-05-31T13:42:06;25.60;96.30
15341;DHT22;7770;52.158;5.372;2023-05-31T13:44:53;25.50;96.30
15341;DHT22;7770;52.158;5.372;2023-05-31T13:47:39;25.40;96.40
15341;DHT22;7770;52.158;5.372;2023-05-31T13:50:25;25.30;96.90
15341;DHT22;7770;52.158;5.372;2023-05-31T13:53:11;25.20;97.00
15341;DHT22;7770;52.158;5.372;2023-05-31T13:55:58;25.00;97.60
15341;DHT22;7770;52.158;5.372;2023-05-31T13:58:44;25.00;97.50
15341;DHT22;7770;52.158;5.372;2023-05-31T14:01:30;24.80;97.20
15341;DHT22;7770;52.158;5.372;2023-05-31T14:04:16;24.60;98.20
15341;DHT22;7770;52.158;5.372;2023-05-31T14:07:02;24.70;98.50
15341;DHT22;7770;52.158;5.372;2023-05-31T14:09:49;24.90;98.10
15341;DHT22;7770;52.158;5.372;2023-05-31T14:12:35;24.90;98.20
15341;DHT22;7770;52.158;5.372;2023-05-31T14:15:21;24.80;98.30
15341;DHT22;7770;52.158;5.372;2023-05-31T14:18:08;24.80;98.50
15341;DHT22;7770;52.158;5.372;2023-05-31T14:20:54;24.70;98.80
15341;DHT22;7770;52.158;5.372;2023-05-31T14:23:40;24.50;99.10
15341;DHT22;7770;52.158;5.372;2023-05-31T14:26:26;24.40;99.30
15341;DHT22;7770;52.158;5.372;2023-05-31T14:29:12;24.20;99.10
15341;DHT22;7770;52.158;5.372;2023-05-31T14:31:58;24.20;99.80
15341;DHT22;7770;52.158;5.372;2023-05-31T14:34:44;24.00;99.90
15341;DHT22;7770;52.158;5.372;2023-05-31T14:37:31;23.80;99.90
15341;DHT22;7770;52.158;5.372;2023-05-31T14:40:18;23.70;99.90
15341;DHT22;7770;52.158;5.372;2023-05-31T14:43:04;23.60;99.90
15341;DHT22;7770;52.158;5.372;2023-05-31T14:45:50;23.60;99.90
15341;DHT22;7770;52.158;5.372;2023-05-31T14:48:36;23.60;99.90
15341;DHT22;7770;52.158;5.372;2023-05-31T14:51:22;23.60;99.90
15341;DHT22;7770;52.158;5.372;2023-05-31T14:54:08;23.50;99.90
15341;DHT22;7770;52.158;5.372;2023-05-31T14:56:54;23.40;99.90
15341;DHT22;7770;52.158;5.372;2023-05-31T14:59:40;23.40;99.90
15341;DHT22;7770;52.158;5.372;2023-05-31T15:02:26;23.30;99.90
15341;DHT22;7770;52.158;5.372;2023-05-31T15:05:12;23.20;99.90
15341;DHT22;7770;52.158;5.372;2023-05-31T15:07:58;23.20;99.90
15341;DHT22;7770;52.158;5.372;2023-05-31T15:10:44;23.00;99.90
15341;DHT22;7770;52.158;5.372;2023-05-31T15:13:30;23.10;99.90
15341;DHT22;7770;52.158;5.372;2023-05-31T15:16:16;23.10;99.90
15341;DHT22;7770;52.158;5.372;2023-05-31T15:19:02;23.10;99.90
15341;DHT22;7770;52.158;5.372;2023-05-31T15:21:48;23.10;99.90
15341;DHT22;7770;52.158;5.372;2023-05-31T15:24:34;23.10;99.90
15341;DHT22;7770;52.158;5.372;2023-05-31T15:27:21;23.10;99.90
15341;DHT22;7770;52.158;5.372;2023-05-31T15:30:07;22.90;99.90
15341;DHT22;7770;52.158;5.372;2023-05-31T15:32:53;22.70;99.90
15341;DHT22;7770;52.158;5.372;2023-05-31T15:35:39;22.80;99.90
15341;DHT22;7770;52.158;5.372;2023-05-31T15:38:25;22.90;99.90
15341;DHT22;7770;52.158;5.372;2023-05-31T15:41:11;22.80;99.90
15341;DHT22;7770;52.158;5.372;2023-05-31T15:43:57;22.80;99.90
15341;DHT22;7770;52.158;5.372;2023-05-31T15:46:43;22.50;99.90
15341;DHT22;7770;52.158;5.372;2023-05-31T15:49:30;22.60;99.90
15341;DHT22;7770;52.158;5.372;2023-05-31T15:52:16;22.50;99.90
15341;DHT22;7770;52.158;5.372;2023-05-31T15:55:02;22.40;99.90
15341;DHT22;7770;52.158;5.372;2023-05-31T15:57:49;22.50;99.90
15341;DHT22;7770;52.158;5.372;2023-05-31T16:00:36;22.50;99.90
15341;DHT22;7770;52.158;5.372;2023-05-31T16:03:22;22.50;99.90
15341;DHT22;7770;52.158;5.372;2023-05-31T16:06:08;22.50;99.90
15341;DHT22;7770;52.158;5.372;2023-05-31T16:08:54;22.40;99.90
15341;DHT22;7770;52.158;5.372;2023-05-31T16:11:43;22.40;99.90
15341;DHT22;7770;52.158;5.372;2023-05-31T16:14:28;22.30;99.90
15341;DHT22;7770;52.158;5.372;2023-05-31T16:17:14;22.30;99.90
15341;DHT22;7770;52.158;5.372;2023-05-31T16:20:01;22.30;99.90
15341;DHT22;7770;52.158;5.372;2023-05-31T16:22:47;22.40;99.90
15341;DHT22;7770;52.158;5.372;2023-05-31T16:25:33;22.40;99.90
15341;DHT22;7770;52.158;5.372;2023-05-31T16:28:20;22.40;99.90
15341;DHT22;7770;52.158;5.372;2023-05-31T16:31:08;22.30;99.90
15341;DHT22;7770;52.158;5.372;2023-05-31T16:33:54;22.20;99.90
15341;DHT22;7770;52.158;5.372;2023-05-31T16:36:40;22.10;99.90
15341;DHT22;7770;52.158;5.372;2023-05-31T16:39:26;22.10;99.90
15341;DHT22;7770;52.158;5.372;2023-05-31T16:42:12;22.00;99.90
15341;DHT22;7770;52.158;5.372;2023-05-31T16:44:58;21.90;99.90
15341;DHT22;7770;52.158;5.372;2023-05-31T16:47:45;21.90;99.90
15341;DHT22;7770;52.158;5.372;2023-05-31T16:50:31;21.80;99.90
15341;DHT22;7770;52.158;5.372;2023-05-31T16:53:17;21.70;99.90
15341;DHT22;7770;52.158;5.372;2023-05-31T16:56:04;21.60;99.90
15341;DHT22;7770;52.158;5.372;2023-05-31T16:58:50;21.70;99.90
15341;DHT22;7770;52.158;5.372;2023-05-31T17:01:36;21.60;99.90
15341;DHT22;7770;52.158;5.372;2023-05-31T17:04:22;21.40;99.90
15341;DHT22;7770;52.158;5.372;2023-05-31T17:07:08;21.20;99.90
15341;DHT22;7770;52.158;5.372;2023-05-31T17:09:54;21.20;99.90
15341;DHT22;7770;52.158;5.372;2023-05-31T17:12:40;21.00;99.90
15341;DHT22;7770;52.158;5.372;2023-05-31T17:15:27;20.90;99.90
15341;DHT22;7770;52.158;5.372;2023-05-31T17:18:13;20.90;99.90
15341;DHT22;7770;52.158;5.372;2023-05-31T17:21:00;20.80;99.90
15341;DHT22;7770;52.158;5.372;2023-05-31T17:23:46;20.70;99.90
15341;DHT22;7770;52.158;5.372;2023-05-31T17:26:32;20.60;99.90
15341;DHT22;7770;52.158;5.372;2023-05-31T17:29:18;20.60;99.90
15341;DHT22;7770;52.158;5.372;2023-05-31T17:32:04;20.50;99.90
15341;DHT22;7770;52.158;5.372;2023-05-31T17:34:50;20.30;99.90
15341;DHT22;7770;52.158;5.372;2023-05-31T17:37:36;20.20;99.90
15341;DHT22;7770;52.158;5.372;2023-05-31T17:40:22;20.10;99.90
15341;DHT22;7770;52.158;5.372;2023-05-31T17:43:08;20.00;99.90
15341;DHT22;7770;52.158;5.372;2023-05-31T17:45:54;19.90;99.90
15341;DHT22;7770;52.158;5.372;2023-05-31T17:48:40;19.80;99.90
15341;DHT22;7770;52.158;5.372;2023-05-31T17:51:27;19.60;99.90
15341;DHT22;7770;52.158;5.372;2023-05-31T17:54:14;19.40;99.90
15341;DHT22;7770;52.158;5.372;2023-05-31T17:57:00;19.30;99.90
15341;DHT22;7770;52.158;5.372;2023-05-31T17:59:46;19.40;99.90
15341;DHT22;7770;52.158;5.372;2023-05-31T18:02:33;19.30;99.90
15341;DHT22;7770;52.158;5.372;2023-05-31T18:05:19;19.20;99.90